sensor_id;sensor_type;location;lat;lon;timestamp;temperature;humidity
15231;DHT22;32569;51.762;8.564;2023-06-14T00:01:06;18.40;70.70
15231;DHT22;32569;51.762;8.564;2023-06-14T00:03:32;18.30;70.80
15231;DHT22;32569;51.762;8.564;2023-06-14T00:05:59;18.30;71.00
15231;DHT22;32569;51.762;8.564;2023-06-14T00:08:27;18.30;71.30
15231;DHT22;32569;51.762;8.564;2023-06-14T00:10:54;18.30;71.40
15231;DHT22;32569;51.762;8.564;2023-06-14T00:13:20;18.20;71.50
15231;DHT22;32569;51.762;8.564;2023-06-14T00:15:47;18.10;71.50
15231;DHT22;32569;51.762;8.564;2023-06-14T00:18:14;18.20;72.00
15231;DHT22;32569;51.762;8.564;2023-06-14T00:20:41;18.20;71.70
15231;DHT22;32569;51.762;8.564;2023-06-14T00:23:08;18.10;71.90
15231;DHT22;32569;51.762;8.564;2023-06-14T00:25:36;18.20;71.90
15231;DHT22;32569;51.762;8.564;2023-06-14T00:28:03;18.10;72.40
15231;DHT22;32569;51.762;8.564;2023-06-14T00:30:33;18.10;72.40
15231;DHT22;32569;51.762;8.564;2023-06-14T00:32:59;18.00;72.30
15231;DHT22;32569;51.762;8.564;2023-06-14T00:35:26;18.00;72.50
15231;DHT22;32569;51.762;8.564;2023-06-14T00:37:53;18.00;72.70
15231;DHT22;32569;51.762;8.564;2023-06-14T00:40:20;17.90;72.70
15231;DHT22;32569;51.762;8.564;2023-06-14T00:42:48;17.90;72.90
15231;DHT22;32569;51.762;8.564;2023-06-14T00:45:15;17.90;72.80
15231;DHT22;32569;51.762;8.564;2023-06-14T00:47:43;17.80;72.90
15231;DHT22;32569;51.762;8.564;2023-06-14T00:50:09;17.80;72.80
15231;DHT22;32569;51.762;8.564;2023-06-14T00:52:36;17.80;73.30
15231;DHT22;32569;51.762;8.564;2023-06-14T00:55:04;17.80;73.30
15231;DHT22;32569;51.762;8.564;2023-06-14T00:57:31;17.80;73.40
15231;DHT22;32569;51.762;8.564;2023-06-14T00:59:59;17.80;73.60
15231;DHT22;32569;51.762;8.564;2023-06-14T01:02:26;17.70;73.60
15231;DHT22;32569;51.762;8.564;2023-06-14T01:04:53;17.70;73.70
15231;DHT22;32569;51.762;8.564;2023-06-14T01:07:27;17.60;73.80
15231;DHT22;32569;51.762;8.564;2023-06-14T01:10:05;17.50;74.00
15231;DHT22;32569;51.762;8.564;2023-06-14T01:12:39;17.50;74.20
15231;DHT22;32569;51.762;8.564;2023-06-14T01:15:15;17.50;74.30
15231;DHT22;32569;51.762;8.564;2023-06-14T01:17:42;17.40;74.50
15231;DHT22;32569;51.762;8.564;2023-06-14T01:20:12;17.40;74.50
15231;DHT22;32569;51.762;8.564;2023-06-14T01:22:50;17.40;74.60
15231;DHT22;32569;51.762;8.564;2023-06-14T01:25:18;17.40;74.70
15231;DHT22;32569;51.762;8.564;2023-06-14T01:27:47;17.40;74.90
15231;DHT22;32569;51.762;8.564;2023-06-14T01:30:14;17.30;75.00
15231;DHT22;32569;51.762;8.564;2023-06-14T01:32:41;17.30;75.00
15231;DHT22;32569;51.762;8.564;2023-06-14T01:35:08;17.30;75.10
15231;DHT22;32569;51.762;8.564;2023-06-14T01:37:35;17.30;75.20
15231;DHT22;32569;51.762;8.564;2023-06-14T01:40:05;17.30;75.20
15231;DHT22;32569;51.762;8.564;2023-06-14T01:42:34;17.30;75.10
15231;DHT22;32569;51.762;8.564;2023-06-14T01:45:02;17.30;75.30
15231;DHT22;32569;51.762;8.564;2023-06-14T01:47:30;17.20;75.50
15231;DHT22;32569;51.762;8.564;2023-06-14T01:49:57;17.10;75.50
15231;DHT22;32569;51.762;8.564;2023-06-14T01:52:24;17.00;76.60
15231;DHT22;32569;51.762;8.564;2023-06-14T01:54:52;17.10;76.30
15231;DHT22;32569;51.762;8.564;2023-06-14T01:57:19;17.10;76.20
15231;DHT22;32569;51.762;8.564;2023-06-14T01:59:47;17.10;76.30
15231;DHT22;32569;51.762;8.564;2023-06-14T02:02:14;17.00;76.60
15231;DHT22;32569;51.762;8.564;2023-06-14T02:04:41;17.00;76.50
15231;DHT22;32569;51.762;8.564;2023-06-14T02:07:08;16.90;76.80
15231;DHT22;32569;51.762;8.564;2023-06-14T02:09:35;16.80;77.00
15231;DHT22;32569;51.762;8.564;2023-06-14T02:12:01;16.80;77.20
15231;DHT22;32569;51.762;8.564;2023-06-14T02:14:29;16.70;77.30
15231;DHT22;32569;51.762;8.564;2023-06-14T02:16:56;16.70;77.20
15231;DHT22;32569;51.762;8.564;2023-06-14T02:19:23;16.70;77.10
15231;DHT22;32569;51.762;8.564;2023-06-14T02:21:49;16.70;77.20
15231;DHT22;32569;51.762;8.564;2023-06-14T02:24:16;16.70;77.60
15231;DHT22;32569;51.762;8.564;2023-06-14T02:26:42;16.60;77.60
15231;DHT22;32569;51.762;8.564;2023-06-14T02:29:09;16.60;77.90
15231;DHT22;32569;51.762;8.564;2023-06-14T02:31:39;16.60;78.10
15231;DHT22;32569;51.762;8.564;2023-06-14T02:34:06;16.60;78.20
15231;DHT22;32569;51.762;8.564;2023-06-14T02:36:34;16.50;78.40
15231;DHT22;32569;51.762;8.564;2023-06-14T02:39:06;16.40;78.80
15231;DHT22;32569;51.762;8.564;2023-06-14T02:41:32;16.30;79.20
15231;DHT22;32569;51.762;8.564;2023-06-14T02:43:59;16.20;79.30
15231;DHT22;32569;51.762;8.564;2023-06-14T02:46:25;16.20;79.40
15231;DHT22;32569;51.762;8.564;2023-06-14T02:48:53;16.20;79.60
15231;DHT22;32569;51.762;8.564;2023-06-14T02:51:20;16.10;79.50
15231;DHT22;32569;51.762;8.564;2023-06-14T02:53:47;16.10;79.60
15231;DHT22;32569;51.762;8.564;2023-06-14T02:56:13;16.10;79.60
15231;DHT22;32569;51.762;8.564;2023-06-14T02:58:42;16.00;79.90
15231;DHT22;32569;51.762;8.564;2023-06-14T03:01:09;16.10;79.90
15231;DHT22;32569;51.762;8.564;2023-06-14T03:03:41;16.00;80.00
15231;DHT22;32569;51.762;8.564;2023-06-14T03:06:09;16.00;80.00
15231;DHT22;32569;51.762;8.564;2023-06-14T03:08:38;16.00;80.30
15231;DHT22;32569;51.762;8.564;2023-06-14T03:11:05;16.00;80.30
15231;DHT22;32569;51.762;8.564;2023-06-14T03:13:32;15.90;81.10
15231;DHT22;32569;51.762;8.564;2023-06-14T03:15:59;15.90;80.80
15231;DHT22;32569;51.762;8.564;2023-06-14T03:18:27;15.80;80.80
15231;DHT22;32569;51.762;8.564;2023-06-14T03:20:54;15.70;81.30
15231;DHT22;32569;51.762;8.564;2023-06-14T03:23:23;15.70;81.30
15231;DHT22;32569;51.762;8.564;2023-06-14T03:25:53;15.60;81.60
15231;DHT22;32569;51.762;8.564;2023-06-14T03:28:21;15.60;81.90
15231;DHT22;32569;51.762;8.564;2023-06-14T03:30:47;15.60;81.90
15231;DHT22;32569;51.762;8.564;2023-06-14T03:33:17;15.50;82.00
15231;DHT22;32569;51.762;8.564;2023-06-14T03:35:44;15.50;82.00
15231;DHT22;32569;51.762;8.564;2023-06-14T03:38:11;15.50;82.20
15231;DHT22;32569;51.762;8.564;2023-06-14T03:40:39;15.50;82.60
15231;DHT22;32569;51.762;8.564;2023-06-14T03:43:06;15.40;82.40
15231;DHT22;32569;51.762;8.564;2023-06-14T03:45:33;15.50;82.40
15231;DHT22;32569;51.762;8.564;2023-06-14T03:47:59;15.50;82.60
15231;DHT22;32569;51.762;8.564;2023-06-14T03:50:27;15.50;82.30
15231;DHT22;32569;51.762;8.564;2023-06-14T03:52:53;15.50;82.40
15231;DHT22;32569;51.762;8.564;2023-06-14T03:55:20;15.40;82.50
15231;DHT22;32569;51.762;8.564;2023-06-14T03:57:48;15.50;82.60
15231;DHT22;32569;51.762;8.564;2023-06-14T04:00:15;15.50;82.60
15231;DHT22;32569;51.762;8.564;2023-06-14T04:02:42;15.50;82.70
15231;DHT22;32569;51.762;8.564;2023-06-14T04:05:09;15.50;82.90
15231;DHT22;32569;51.762;8.564;2023-06-14T04:07:36;15.60;83.00
15231;DHT22;32569;51.762;8.564;2023-06-14T04:10:06;15.60;83.00
15231;DHT22;32569;51.762;8.564;2023-06-14T04:12:33;15.60;82.80
15231;DHT22;32569;51.762;8.564;2023-06-14T04:15:01;15.60;82.80
15231;DHT22;32569;51.762;8.564;2023-06-14T04:17:29;15.60;83.10
15231;DHT22;32569;51.762;8.564;2023-06-14T04:19:58;15.70;82.80
15231;DHT22;32569;51.762;8.564;2023-06-14T04:22:25;15.70;83.30
15231;DHT22;32569;51.762;8.564;2023-06-14T04:24:53;15.80;83.60
15231;DHT22;32569;51.762;8.564;2023-06-14T04:27:20;15.90;83.60
15231;DHT22;32569;51.762;8.564;2023-06-14T04:29:51;15.90;84.80
15231;DHT22;32569;51.762;8.564;2023-06-14T04:32:23;16.00;83.30
15231;DHT22;32569;51.762;8.564;2023-06-14T04:34:51;16.10;84.20
15231;DHT22;32569;51.762;8.564;2023-06-14T04:37:19;16.30;82.70
15231;DHT22;32569;51.762;8.564;2023-06-14T04:39:46;16.50;82.70
15231;DHT22;32569;51.762;8.564;2023-06-14T04:42:13;16.70;82.10
15231;DHT22;32569;51.762;8.564;2023-06-14T04:44:42;16.80;82.30
15231;DHT22;32569;51.762;8.564;2023-06-14T04:47:08;17.00;82.40
15231;DHT22;32569;51.762;8.564;2023-06-14T04:49:36;17.30;81.70
15231;DHT22;32569;51.762;8.564;2023-06-14T04:52:04;17.40;81.60
15231;DHT22;32569;51.762;8.564;2023-06-14T04:54:31;17.60;80.80
15231;DHT22;32569;51.762;8.564;2023-06-14T04:56:59;17.80;81.10
15231;DHT22;32569;51.762;8.564;2023-06-14T04:59:25;17.90;80.20
15231;DHT22;32569;51.762;8.564;2023-06-14T05:01:52;18.00;79.70
15231;DHT22;32569;51.762;8.564;2023-06-14T05:04:19;18.20;79.50
15231;DHT22;32569;51.762;8.564;2023-06-14T05:06:48;18.10;79.30
15231;DHT22;32569;51.762;8.564;2023-06-14T05:09:15;18.10;80.00
15231;DHT22;32569;51.762;8.564;2023-06-14T05:11:42;18.20;79.80
15231;DHT22;32569;51.762;8.564;2023-06-14T05:14:09;18.50;79.50
15231;DHT22;32569;51.762;8.564;2023-06-14T05:16:36;18.50;79.20
15231;DHT22;32569;51.762;8.564;2023-06-14T05:19:04;18.40;80.80
15231;DHT22;32569;51.762;8.564;2023-06-14T05:21:31;18.30;79.80
15231;DHT22;32569;51.762;8.564;2023-06-14T05:24:00;18.30;79.40
15231;DHT22;32569;51.762;8.564;2023-06-14T05:26:27;18.20;79.40
15231;DHT22;32569;51.762;8.564;2023-06-14T05:28:54;18.20;80.90
15231;DHT22;32569;51.762;8.564;2023-06-14T05:31:21;18.50;79.90
15231;DHT22;32569;51.762;8.564;2023-06-14T05:33:48;18.60;78.70
15231;DHT22;32569;51.762;8.564;2023-06-14T05:36:15;18.50;79.30
15231;DHT22;32569;51.762;8.564;2023-06-14T05:38:41;18.60;79.30
15231;DHT22;32569;51.762;8.564;2023-06-14T05:41:09;18.70;79.20
15231;DHT22;32569;51.762;8.564;2023-06-14T05:43:36;18.80;78.70
15231;DHT22;32569;51.762;8.564;2023-06-14T05:46:03;18.80;79.60
15231;DHT22;32569;51.762;8.564;2023-06-14T05:48:30;18.90;79.50
15231;DHT22;32569;51.762;8.564;2023-06-14T05:50:57;19.20;78.20
15231;DHT22;32569;51.762;8.564;2023-06-14T05:53:23;19.30;78.40
15231;DHT22;32569;51.762;8.564;2023-06-14T05:55:50;19.30;77.30
15231;DHT22;32569;51.762;8.564;2023-06-14T05:58:20;19.50;75.90
15231;DHT22;32569;51.762;8.564;2023-06-14T06:00:47;19.30;76.20
15231;DHT22;32569;51.762;8.564;2023-06-14T06:03:14;19.20;75.40
15231;DHT22;32569;51.762;8.564;2023-06-14T06:05:40;19.10;74.70
15231;DHT22;32569;51.762;8.564;2023-06-14T06:08:07;19.00;75.40
15231;DHT22;32569;51.762;8.564;2023-06-14T06:10:33;19.20;75.20
15231;DHT22;32569;51.762;8.564;2023-06-14T06:13:00;19.50;75.60
15231;DHT22;32569;51.762;8.564;2023-06-14T06:15:28;19.50;73.90
15231;DHT22;32569;51.762;8.564;2023-06-14T06:17:55;19.60;73.40
15231;DHT22;32569;51.762;8.564;2023-06-14T06:20:22;19.60;73.30
15231;DHT22;32569;51.762;8.564;2023-06-14T06:22:53;19.50;72.40
15231;DHT22;32569;51.762;8.564;2023-06-14T06:25:19;19.30;73.70
15231;DHT22;32569;51.762;8.564;2023-06-14T06:27:47;19.10;74.30
15231;DHT22;32569;51.762;8.564;2023-06-14T06:30:14;19.30;74.30
15231;DHT22;32569;51.762;8.564;2023-06-14T06:32:42;19.40;74.60
15231;DHT22;32569;51.762;8.564;2023-06-14T06:35:10;19.50;75.10
15231;DHT22;32569;51.762;8.564;2023-06-14T06:37:38;19.30;74.80
15231;DHT22;32569;51.762;8.564;2023-06-14T06:40:05;19.30;75.00
15231;DHT22;32569;51.762;8.564;2023-06-14T06:42:33;19.30;75.50
15231;DHT22;32569;51.762;8.564;2023-06-14T06:45:00;19.30;75.50
15231;DHT22;32569;51.762;8.564;2023-06-14T06:47:27;19.40;75.70
15231;DHT22;32569;51.762;8.564;2023-06-14T06:49:55;19.70;75.20
15231;DHT22;32569;51.762;8.564;2023-06-14T06:52:21;19.40;75.50
15231;DHT22;32569;51.762;8.564;2023-06-14T06:54:48;19.10;75.90
15231;DHT22;32569;51.762;8.564;2023-06-14T06:57:16;18.90;76.60
15231;DHT22;32569;51.762;8.564;2023-06-14T06:59:42;18.90;77.40
15231;DHT22;32569;51.762;8.564;2023-06-14T07:02:09;18.90;77.10
15231;DHT22;32569;51.762;8.564;2023-06-14T07:04:35;18.70;77.70
15231;DHT22;32569;51.762;8.564;2023-06-14T07:07:03;18.40;77.90
15231;DHT22;32569;51.762;8.564;2023-06-14T07:09:30;18.30;78.20
15231;DHT22;32569;51.762;8.564;2023-06-14T07:11:57;18.10;79.00
15231;DHT22;32569;51.762;8.564;2023-06-14T07:14:23;18.00;79.00
15231;DHT22;32569;51.762;8.564;2023-06-14T07:16:50;18.10;79.60
15231;DHT22;32569;51.762;8.564;2023-06-14T07:19:16;18.20;79.80
15231;DHT22;32569;51.762;8.564;2023-06-14T07:21:43;18.20;79.80
15231;DHT22;32569;51.762;8.564;2023-06-14T07:24:11;18.00;79.90
15231;DHT22;32569;51.762;8.564;2023-06-14T07:26:37;18.20;80.30
15231;DHT22;32569;51.762;8.564;2023-06-14T07:29:04;18.40;79.80
15231;DHT22;32569;51.762;8.564;2023-06-14T07:31:31;18.50;79.80
15231;DHT22;32569;51.762;8.564;2023-06-14T07:33:57;18.60;79.60
15231;DHT22;32569;51.762;8.564;2023-06-14T07:36:24;18.90;78.90
15231;DHT22;32569;51.762;8.564;2023-06-14T07:38:51;18.80;78.10
15231;DHT22;32569;51.762;8.564;2023-06-14T07:41:19;18.50;78.80
15231;DHT22;32569;51.762;8.564;2023-06-14T07:43:46;18.60;78.90
15231;DHT22;32569;51.762;8.564;2023-06-14T07:46:12;18.70;77.50
15231;DHT22;32569;51.762;8.564;2023-06-14T07:48:39;18.70;76.70
15231;DHT22;32569;51.762;8.564;2023-06-14T07:51:05;18.70;76.90
15231;DHT22;32569;51.762;8.564;2023-06-14T07:53:32;18.80;76.80
15231;DHT22;32569;51.762;8.564;2023-06-14T07:55:59;18.70;77.30
15231;DHT22;32569;51.762;8.564;2023-06-14T07:58:27;18.60;77.10
15231;DHT22;32569;51.762;8.564;2023-06-14T08:00:54;18.50;77.50
15231;DHT22;32569;51.762;8.564;2023-06-14T08:03:20;18.60;78.60
15231;DHT22;32569;51.762;8.564;2023-06-14T08:05:47;18.90;78.00
15231;DHT22;32569;51.762;8.564;2023-06-14T08:08:14;19.00;77.20
15231;DHT22;32569;51.762;8.564;2023-06-14T08:10:41;19.00;77.00
15231;DHT22;32569;51.762;8.564;2023-06-14T08:13:08;19.10;77.00
15231;DHT22;32569;51.762;8.564;2023-06-14T08:15:36;19.10;76.60
15231;DHT22;32569;51.762;8.564;2023-06-14T08:18:03;19.20;76.10
15231;DHT22;32569;51.762;8.564;2023-06-14T08:20:30;19.20;76.80
15231;DHT22;32569;51.762;8.564;2023-06-14T08:22:57;19.30;77.40
15231;DHT22;32569;51.762;8.564;2023-06-14T08:25:24;19.30;77.40
15231;DHT22;32569;51.762;8.564;2023-06-14T08:27:51;19.40;77.00
15231;DHT22;32569;51.762;8.564;2023-06-14T08:30:18;19.60;77.20
15231;DHT22;32569;51.762;8.564;2023-06-14T08:32:46;19.70;75.60
15231;DHT22;32569;51.762;8.564;2023-06-14T08:35:12;19.90;76.20
15231;DHT22;32569;51.762;8.564;2023-06-14T08:37:39;19.90;76.00
15231;DHT22;32569;51.762;8.564;2023-06-14T08:40:18;19.90;76.10
15231;DHT22;32569;51.762;8.564;2023-06-14T08:42:47;19.70;76.50
15231;DHT22;32569;51.762;8.564;2023-06-14T08:45:14;19.20;76.30
15231;DHT22;32569;51.762;8.564;2023-06-14T08:47:40;19.10;77.90
15231;DHT22;32569;51.762;8.564;2023-06-14T08:50:09;19.20;77.80
15231;DHT22;32569;51.762;8.564;2023-06-14T08:52:38;19.60;77.10
15231;DHT22;32569;51.762;8.564;2023-06-14T08:55:06;19.60;76.10
15231;DHT22;32569;51.762;8.564;2023-06-14T08:57:36;19.70;76.10
15231;DHT22;32569;51.762;8.564;2023-06-14T09:00:04;19.80;76.50
15231;DHT22;32569;51.762;8.564;2023-06-14T09:02:37;19.90;75.70
15231;DHT22;32569;51.762;8.564;2023-06-14T09:05:04;19.80;75.40
15231;DHT22;32569;51.762;8.564;2023-06-14T09:07:32;19.90;76.30
15231;DHT22;32569;51.762;8.564;2023-06-14T09:10:08;20.00;74.80
15231;DHT22;32569;51.762;8.564;2023-06-14T09:12:35;19.90;75.00
15231;DHT22;32569;51.762;8.564;2023-06-14T09:15:02;19.90;74.70
15231;DHT22;32569;51.762;8.564;2023-06-14T09:17:32;20.00;75.20
15231;DHT22;32569;51.762;8.564;2023-06-14T09:20:00;20.20;74.00
15231;DHT22;32569;51.762;8.564;2023-06-14T09:22:29;20.20;73.20
15231;DHT22;32569;51.762;8.564;2023-06-14T09:24:57;20.20;73.10
15231;DHT22;32569;51.762;8.564;2023-06-14T09:27:25;20.20;73.80
15231;DHT22;32569;51.762;8.564;2023-06-14T09:29:52;20.20;74.20
15231;DHT22;32569;51.762;8.564;2023-06-14T09:32:20;20.10;74.50
15231;DHT22;32569;51.762;8.564;2023-06-14T09:34:47;20.20;74.90
15231;DHT22;32569;51.762;8.564;2023-06-14T09:37:26;20.20;74.50
15231;DHT22;32569;51.762;8.564;2023-06-14T09:39:53;20.30;73.40
15231;DHT22;32569;51.762;8.564;2023-06-14T09:42:21;20.40;73.80
15231;DHT22;32569;51.762;8.564;2023-06-14T09:44:48;20.50;73.30
15231;DHT22;32569;51.762;8.564;2023-06-14T09:47:16;20.70;73.90
15231;DHT22;32569;51.762;8.564;2023-06-14T09:49:42;20.70;72.70
15231;DHT22;32569;51.762;8.564;2023-06-14T09:52:10;20.60;73.70
15231;DHT22;32569;51.762;8.564;2023-06-14T09:54:40;20.70;72.70
15231;DHT22;32569;51.762;8.564;2023-06-14T09:57:09;20.70;72.70
15231;DHT22;32569;51.762;8.564;2023-06-14T09:59:41;20.70;73.60
15231;DHT22;32569;51.762;8.564;2023-06-14T10:02:12;20.70;72.90
15231;DHT22;32569;51.762;8.564;2023-06-14T10:04:43;20.70;73.90
15231;DHT22;32569;51.762;8.564;2023-06-14T10:07:14;20.70;74.50
15231;DHT22;32569;51.762;8.564;2023-06-14T10:09:41;20.60;74.70
15231;DHT22;32569;51.762;8.564;2023-06-14T10:12:11;20.60;73.90
15231;DHT22;32569;51.762;8.564;2023-06-14T10:14:42;20.70;73.40
15231;DHT22;32569;51.762;8.564;2023-06-14T10:17:10;20.80;73.10
15231;DHT22;32569;51.762;8.564;2023-06-14T10:19:44;20.70;73.30
15231;DHT22;32569;51.762;8.564;2023-06-14T10:22:18;20.90;73.40
15231;DHT22;32569;51.762;8.564;2023-06-14T10:24:48;21.10;73.00
15231;DHT22;32569;51.762;8.564;2023-06-14T10:27:16;21.20;73.80
15231;DHT22;32569;51.762;8.564;2023-06-14T10:30:07;21.20;73.20
15231;DHT22;32569;51.762;8.564;2023-06-14T10:32:34;21.20;71.70
15231;DHT22;32569;51.762;8.564;2023-06-14T10:35:04;20.90;72.70
15231;DHT22;32569;51.762;8.564;2023-06-14T10:37:31;21.00;73.10
15231;DHT22;32569;51.762;8.564;2023-06-14T10:39:57;21.00;72.90
15231;DHT22;32569;51.762;8.564;2023-06-14T10:42:28;21.10;72.50
15231;DHT22;32569;51.762;8.564;2023-06-14T10:44:55;20.90;72.80
15231;DHT22;32569;51.762;8.564;2023-06-14T10:47:26;20.90;74.10
15231;DHT22;32569;51.762;8.564;2023-06-14T10:49:54;20.90;72.80
15231;DHT22;32569;51.762;8.564;2023-06-14T10:52:22;20.80;72.10
15231;DHT22;32569;51.762;8.564;2023-06-14T10:54:58;20.80;72.50
15231;DHT22;32569;51.762;8.564;2023-06-14T10:57:25;20.90;72.50
15231;DHT22;32569;51.762;8.564;2023-06-14T10:59:52;21.10;72.30
15231;DHT22;32569;51.762;8.564;2023-06-14T11:02:41;21.40;72.70
15231;DHT22;32569;51.762;8.564;2023-06-14T11:05:14;21.60;71.90
15231;DHT22;32569;51.762;8.564;2023-06-14T11:07:48;21.70;71.20
15231;DHT22;32569;51.762;8.564;2023-06-14T11:10:26;21.70;71.70
15231;DHT22;32569;51.762;8.564;2023-06-14T11:13:00;22.00;70.90
15231;DHT22;32569;51.762;8.564;2023-06-14T11:15:28;22.20;71.30
15231;DHT22;32569;51.762;8.564;2023-06-14T11:17:57;22.40;71.90
15231;DHT22;32569;51.762;8.564;2023-06-14T11:20:25;22.30;71.40
15231;DHT22;32569;51.762;8.564;2023-06-14T11:22:53;22.20;71.60
15231;DHT22;32569;51.762;8.564;2023-06-14T11:25:20;22.20;72.00
15231;DHT22;32569;51.762;8.564;2023-06-14T11:27:48;22.00;71.20
15231;DHT22;32569;51.762;8.564;2023-06-14T11:30:15;21.90;70.70
15231;DHT22;32569;51.762;8.564;2023-06-14T11:32:46;22.00;71.10
15231;DHT22;32569;51.762;8.564;2023-06-14T11:35:14;22.10;72.20
15231;DHT22;32569;51.762;8.564;2023-06-14T11:37:41;21.90;70.70
15231;DHT22;32569;51.762;8.564;2023-06-14T11:40:11;22.00;71.20
15231;DHT22;32569;51.762;8.564;2023-06-14T11:42:39;22.10;71.90
15231;DHT22;32569;51.762;8.564;2023-06-14T11:45:08;22.20;71.50
15231;DHT22;32569;51.762;8.564;2023-06-14T11:47:35;22.10;70.80
15231;DHT22;32569;51.762;8.564;2023-06-14T11:50:03;22.10;71.20
15231;DHT22;32569;51.762;8.564;2023-06-14T11:52:32;22.30;72.00
15231;DHT22;32569;51.762;8.564;2023-06-14T11:54:59;22.40;70.70
15231;DHT22;32569;51.762;8.564;2023-06-14T11:57:26;22.30;70.80
15231;DHT22;32569;51.762;8.564;2023-06-14T11:59:55;22.30;70.60
15231;DHT22;32569;51.762;8.564;2023-06-14T12:02:22;22.10;71.90
15231;DHT22;32569;51.762;8.564;2023-06-14T12:04:50;22.20;71.60
15231;DHT22;32569;51.762;8.564;2023-06-14T12:07:18;22.40;70.40
15231;DHT22;32569;51.762;8.564;2023-06-14T12:10:05;22.40;70.50
15231;DHT22;32569;51.762;8.564;2023-06-14T12:12:35;22.60;70.20
15231;DHT22;32569;51.762;8.564;2023-06-14T12:15:03;22.80;70.50
15231;DHT22;32569;51.762;8.564;2023-06-14T12:17:32;22.80;69.80
15231;DHT22;32569;51.762;8.564;2023-06-14T12:20:04;22.80;69.40
15231;DHT22;32569;51.762;8.564;2023-06-14T12:22:31;22.80;69.80
15231;DHT22;32569;51.762;8.564;2023-06-14T12:24:58;23.00;70.00
15231;DHT22;32569;51.762;8.564;2023-06-14T12:27:26;23.10;69.10
15231;DHT22;32569;51.762;8.564;2023-06-14T12:29:59;23.10;69.50
15231;DHT22;32569;51.762;8.564;2023-06-14T12:32:26;23.30;70.20
15231;DHT22;32569;51.762;8.564;2023-06-14T12:34:52;23.20;69.30
15231;DHT22;32569;51.762;8.564;2023-06-14T12:37:19;23.20;68.10
15231;DHT22;32569;51.762;8.564;2023-06-14T12:39:45;23.10;67.40
15231;DHT22;32569;51.762;8.564;2023-06-14T12:42:12;23.10;68.00
15231;DHT22;32569;51.762;8.564;2023-06-14T12:44:41;23.10;67.10
15231;DHT22;32569;51.762;8.564;2023-06-14T12:47:08;23.30;67.40
15231;DHT22;32569;51.762;8.564;2023-06-14T12:49:34;23.40;67.60
15231;DHT22;32569;51.762;8.564;2023-06-14T12:52:01;23.20;68.30
15231;DHT22;32569;51.762;8.564;2023-06-14T12:54:28;23.30;67.40
15231;DHT22;32569;51.762;8.564;2023-06-14T12:56:54;23.40;67.00
15231;DHT22;32569;51.762;8.564;2023-06-14T12:59:21;23.40;66.80
15231;DHT22;32569;51.762;8.564;2023-06-14T13:01:49;23.60;66.70
15231;DHT22;32569;51.762;8.564;2023-06-14T13:04:16;23.80;67.10
15231;DHT22;32569;51.762;8.564;2023-06-14T13:06:42;23.90;66.70
15231;DHT22;32569;51.762;8.564;2023-06-14T13:09:09;23.70;68.70
15231;DHT22;32569;51.762;8.564;2023-06-14T13:11:36;23.40;68.30
15231;DHT22;32569;51.762;8.564;2023-06-14T13:14:03;23.10;68.20
15231;DHT22;32569;51.762;8.564;2023-06-14T13:16:30;23.20;67.60
15231;DHT22;32569;51.762;8.564;2023-06-14T13:18:58;23.30;67.40
15231;DHT22;32569;51.762;8.564;2023-06-14T13:21:25;23.50;67.10
15231;DHT22;32569;51.762;8.564;2023-06-14T13:23:52;23.80;67.50
15231;DHT22;32569;51.762;8.564;2023-06-14T13:26:19;23.80;67.50
15231;DHT22;32569;51.762;8.564;2023-06-14T13:28:45;23.60;67.40
15231;DHT22;32569;51.762;8.564;2023-06-14T13:31:12;23.20;68.10
15231;DHT22;32569;51.762;8.564;2023-06-14T13:33:39;23.00;68.90
15231;DHT22;32569;51.762;8.564;2023-06-14T13:36:07;23.10;69.80
15231;DHT22;32569;51.762;8.564;2023-06-14T13:38:33;23.20;68.40
15231;DHT22;32569;51.762;8.564;2023-06-14T13:41:00;23.20;68.60
15231;DHT22;32569;51.762;8.564;2023-06-14T13:43:27;23.30;69.40
15231;DHT22;32569;51.762;8.564;2023-06-14T13:45:53;23.60;68.80
15231;DHT22;32569;51.762;8.564;2023-06-14T13:48:20;23.70;68.30
15231;DHT22;32569;51.762;8.564;2023-06-14T13:50:47;23.70;67.60
15231;DHT22;32569;51.762;8.564;2023-06-14T13:53:15;23.70;68.50
15231;DHT22;32569;51.762;8.564;2023-06-14T13:55:41;23.80;68.50
15231;DHT22;32569;51.762;8.564;2023-06-14T13:58:08;23.90;67.40
15231;DHT22;32569;51.762;8.564;2023-06-14T14:00:34;24.10;68.30
15231;DHT22;32569;51.762;8.564;2023-06-14T14:03:05;24.10;68.40
15231;DHT22;32569;51.762;8.564;2023-06-14T14:05:32;23.80;67.70
15231;DHT22;32569;51.762;8.564;2023-06-14T14:07:59;23.80;69.10
15231;DHT22;32569;51.762;8.564;2023-06-14T14:10:27;24.10;68.70
15231;DHT22;32569;51.762;8.564;2023-06-14T14:12:53;24.00;67.40
15231;DHT22;32569;51.762;8.564;2023-06-14T14:15:20;24.10;67.50
15231;DHT22;32569;51.762;8.564;2023-06-14T14:17:47;24.10;67.80
15231;DHT22;32569;51.762;8.564;2023-06-14T14:20:16;24.00;67.20
15231;DHT22;32569;51.762;8.564;2023-06-14T14:22:43;23.80;67.80
15231;DHT22;32569;51.762;8.564;2023-06-14T14:25:10;23.70;67.50
15231;DHT22;32569;51.762;8.564;2023-06-14T14:27:38;23.70;68.10
15231;DHT22;32569;51.762;8.564;2023-06-14T14:30:06;23.60;68.10
15231;DHT22;32569;51.762;8.564;2023-06-14T14:32:32;23.50;67.70
15231;DHT22;32569;51.762;8.564;2023-06-14T14:35:02;23.50;69.00
15231;DHT22;32569;51.762;8.564;2023-06-14T14:37:29;23.50;67.50
15231;DHT22;32569;51.762;8.564;2023-06-14T14:39:55;23.70;68.20
15231;DHT22;32569;51.762;8.564;2023-06-14T14:42:22;23.60;68.50
15231;DHT22;32569;51.762;8.564;2023-06-14T14:44:50;23.60;68.30
15231;DHT22;32569;51.762;8.564;2023-06-14T14:47:16;23.50;68.70
15231;DHT22;32569;51.762;8.564;2023-06-14T14:49:43;23.60;68.80
15231;DHT22;32569;51.762;8.564;2023-06-14T14:52:10;23.60;69.40
15231;DHT22;32569;51.762;8.564;2023-06-14T14:54:38;23.80;67.70
15231;DHT22;32569;51.762;8.564;2023-06-14T14:57:05;24.10;67.40
15231;DHT22;32569;51.762;8.564;2023-06-14T14:59:32;24.30;67.00
15231;DHT22;32569;51.762;8.564;2023-06-14T15:02:00;24.10;68.40
15231;DHT22;32569;51.762;8.564;2023-06-14T15:04:26;23.80;67.60
15231;DHT22;32569;51.762;8.564;2023-06-14T15:06:53;23.60;67.30
15231;DHT22;32569;51.762;8.564;2023-06-14T15:09:20;23.40;68.00
15231;DHT22;32569;51.762;8.564;2023-06-14T15:11:46;23.30;68.30
15231;DHT22;32569;51.762;8.564;2023-06-14T15:14:13;23.20;68.90
15231;DHT22;32569;51.762;8.564;2023-06-14T15:16:40;23.30;69.00
15231;DHT22;32569;51.762;8.564;2023-06-14T15:19:08;23.30;69.10
15231;DHT22;32569;51.762;8.564;2023-06-14T15:21:34;23.50;69.30
15231;DHT22;32569;51.762;8.564;2023-06-14T15:24:01;23.60;68.60
15231;DHT22;32569;51.762;8.564;2023-06-14T15:26:28;23.70;67.80
15231;DHT22;32569;51.762;8.564;2023-06-14T15:28:54;23.70;68.00
15231;DHT22;32569;51.762;8.564;2023-06-14T15:31:21;24.00;66.50
15231;DHT22;32569;51.762;8.564;2023-06-14T15:33:51;23.90;66.70